Pagina principale
METAR-TAF:

METAR-TAF

Aeroporti :

Danbury Municipal Airport

Danbury, Connecticut, Stati Uniti

latitudine: 41-22-18N, longitudine: 073-29-04W, altezza: 139 m

Osservazione

Il bollettino è stato emesso 42 minuti fa, alle 04:53 UTC
Vento 4 kt da nord
Temperature -6°C
Umidità 45%
Pressione 1036 hPa
Visibilità: 16.1 km
Cielo sereno

METAR: KDXR 200453Z AUTO 35004KT 10SM CLR M06/M16 A3058 RMK AO2 SLP360 T10561156 410061100

Ora: 00:35 (05:35 UTC)


TAF: mancante

Osservazioni e previsioni meteorologiche di più di 4000 aeroporti (messaggi METAR e TAF).

Le stazioni disponibili sono rappresentate dai dischi gialli e rossi sulla carta.

Puntare il mouse per vedere il nome della stazione.

Clicca sopra per visualizzare le osservazioni e previsioni meteorologiche.

Per cambiare la mappa : fare clic sui pulsanti verdi con una croce nera per ingrandire, il pulsante verde con un trattino per diminuire, o sulla freccia verde per le mappe adiacenti.


METAR-TAF: